Time;durP1;ratioP1;P1;durP2;ratioP2;P2;SDS_P1;SDS_P2;PMS_P1;PMS_P2;Temp;Humidity;BMP_temperature;BMP_pressure;BME280_temperature;BME280_humidity;BME280_pressure;Samples;Min_cycle;Max_cycle;Signal;HPM_P1;HPM_P2
2023/05/02 00:00:14;;;;;;;;;;;;;;;6.85;100.00;97389.09;5023119;28;19933;-60
2023/05/02 00:02:41;;;;;;;;;;;;;;;6.80;100.00;97389.81;5028172;28;19952;-58
2023/05/02 00:05:08;;;;;;;;;;;;;;;6.79;100.00;97396.25;5019889;28;19920;-59
2023/05/02 00:07:34;;;;;;;;;;;;;;;6.79;100.00;97392.72;5028250;28;19929;-60
2023/05/02 00:10:01;;;;;;;;;;;;;;;6.84;100.00;97396.38;5030758;28;19924;-59
2023/05/02 00:12:28;;;;;;;;;;;;;;;6.85;100.00;97386.41;5019752;28;19967;-58
2023/05/02 00:14:55;;;;;;;;;;;;;;;7.09;100.00;97381.13;5026561;28;20439;-59
2023/05/02 00:17:21;;;;;;;;;;;;;;;7.22;100.00;97367.47;5018661;28;19924;-59
2023/05/02 00:19:47;;;;;;;;;;;;;;;7.26;100.00;97360.56;5020852;28;20015;-59
2023/05/02 00:22:14;;;;;;;;;;;;;;;7.22;100.00;97362.09;5018571;28;19990;-60
2023/05/02 00:24:40;;;;;;;;;;;;;;;7.23;100.00;97352.16;5023552;28;19943;-60
2023/05/02 00:27:07;;;;;;;;;;;;;;;7.31;100.00;97353.66;5018954;28;19932;-60
2023/05/02 00:29:33;;;;;;;;;;;;;;;7.35;100.00;97353.00;5017411;28;20550;-58
2023/05/02 00:32:00;;;;;;;;;;;;;;;7.37;100.00;97358.16;5024506;28;19928;-60
2023/05/02 00:34:30;;;;;;;;;;;;;;;7.48;100.00;97364.59;5024820;28;19992;-59
2023/05/02 00:36:56;;;;;;;;;;;;;;;7.42;100.00;97360.97;5024925;28;19925;-59
2023/05/02 00:39:23;;;;;;;;;;;;;;;7.36;100.00;97357.31;5011859;28;19925;-59
2023/05/02 00:41:59;;;;;;;;;;;;;;;7.31;100.00;97365.28;5047838;28;19928;-59
2023/05/02 00:44:25;;;;;;;;;;;;;;;7.25;100.00;97358.94;5023706;28;19936;-58
2023/05/02 00:46:53;;;;;;;;;;;;;;;7.29;100.00;97365.50;5019687;28;19929;-57
2023/05/02 00:49:19;;;;;;;;;;;;;;;7.24;100.00;97360.00;5024256;28;19928;-58
2023/05/02 00:51:46;;;;;;;;;;;;;;;7.23;100.00;97361.03;5029323;28;19960;-59
2023/05/02 00:54:12;;;;;;;;;;;;;;;7.25;100.00;97358.94;5022375;28;20455;-57
2023/05/02 00:56:39;;;;;;;;;;;;;;;7.13;100.00;97361.59;5025884;28;20017;-59
2023/05/02 00:59:06;;;;;;;;;;;;;;;7.13;100.00;97360.78;5013353;28;19921;-59
2023/05/02 01:01:47;;;;;;;;;;;;;;;7.05;100.00;97359.25;5028538;28;19925;-59
2023/05/02 01:04:32;;;;;;;;;;;;;;;6.93;100.00;97363.75;5029108;28;21158;-59
2023/05/02 01:07:24;;;;;;;;;;;;;;;6.87;100.00;97360.09;5021856;28;20016;-59
2023/05/02 01:09:54;;;;;;;;;;;;;;;6.84;100.00;97366.78;5015751;28;19922;-59
2023/05/02 01:12:23;;;;;;;;;;;;;;;6.92;100.00;97365.63;5021160;28;19921;-59
2023/05/02 01:14:52;;;;;;;;;;;;;;;7.03;100.00;97364.03;5019562;28;19921;-59
2023/05/02 01:17:21;;;;;;;;;;;;;;;7.10;100.00;97363.91;5016526;28;19931;-59
2023/05/02 01:19:56;;;;;;;;;;;;;;;7.06;100.00;97365.44;5015980;28;19983;-60
2023/05/02 01:22:25;;;;;;;;;;;;;;;7.09;100.00;97365.81;5022236;28;20416;-59
2023/05/02 01:25:13;;;;;;;;;;;;;;;7.03;100.00;97369.41;5021937;28;20078;-59
2023/05/02 01:27:48;;;;;;;;;;;;;;;6.98;100.00;97369.28;5018765;28;19931;-60
2023/05/02 01:30:16;;;;;;;;;;;;;;;6.98;100.00;97367.41;5021605;28;20629;-60
2023/05/02 01:32:45;;;;;;;;;;;;;;;6.95;100.00;97364.34;5029290;28;20459;-58
2023/05/02 01:35:15;;;;;;;;;;;;;;;7.04;100.00;97368.34;5017887;28;20016;-57
2023/05/02 01:37:43;;;;;;;;;;;;;;;7.00;100.00;97365.31;5024302;28;19924;-58
2023/05/02 01:40:10;;;;;;;;;;;;;;;6.93;100.00;97363.75;5023428;28;20496;-58
2023/05/02 01:42:38;;;;;;;;;;;;;;;6.96;100.00;97371.38;5004114;28;19921;-58
2023/05/02 01:45:06;;;;;;;;;;;;;;;7.02;100.00;97367.78;5005249;28;19945;-59
2023/05/02 01:47:34;;;;;;;;;;;;;;;7.02;100.00;97375.84;5016653;28;19928;-56
2023/05/02 01:50:02;;;;;;;;;;;;;;;7.01;100.00;97368.81;5032331;28;19960;-57
2023/05/02 01:52:29;;;;;;;;;;;;;;;7.03;100.00;97375.63;5021387;28;20532;-58
2023/05/02 01:54:58;;;;;;;;;;;;;;;7.07;100.00;97380.56;5009323;28;19943;-59
2023/05/02 01:57:24;;;;;;;;;;;;;;;7.06;100.00;97371.66;5018725;28;20215;-57
2023/05/02 01:59:53;;;;;;;;;;;;;;;6.96;100.00;97390.22;5024026;28;19925;-58
2023/05/02 02:02:20;;;;;;;;;;;;;;;6.90;100.00;97382.00;5021523;28;19971;-58
2023/05/02 02:04:47;;;;;;;;;;;;;;;6.78;100.00;97380.31;5024789;28;19921;-58
2023/05/02 02:07:14;;;;;;;;;;;;;;;6.62;100.00;97386.09;5011594;28;20278;-59
2023/05/02 02:09:41;;;;;;;;;;;;;;;6.55;100.00;97393.41;5011858;28;19970;-58
2023/05/02 02:12:25;;;;;;;;;;;;;;;6.50;100.00;97394.06;5023009;28;19986;-57
2023/05/02 02:14:57;;;;;;;;;;;;;;;6.50;100.00;97396.78;5021192;28;19928;-58
2023/05/02 02:17:31;;;;;;;;;;;;;;;6.38;100.00;97401.28;5021487;28;19935;-58
2023/05/02 02:20:00;;;;;;;;;;;;;;;6.35;100.00;97404.41;5021150;28;20004;-58
2023/05/02 02:22:27;;;;;;;;;;;;;;;6.35;100.00;97412.47;5020333;28;19924;-59
2023/05/02 02:24:54;;;;;;;;;;;;;;;6.29;100.00;97419.56;5022797;28;19931;-59
2023/05/02 02:27:20;;;;;;;;;;;;;;;6.32;100.00;97427.19;5022151;28;19983;-59
2023/05/02 02:29:46;;;;;;;;;;;;;;;6.34;100.00;97433.16;5019112;28;20415;-58
2023/05/02 02:32:13;;;;;;;;;;;;;;;6.37;100.00;97432.72;5026448;28;19925;-59
2023/05/02 02:34:39;;;;;;;;;;;;;;;6.43;100.00;97424.78;5034452;28;19928;-57
2023/05/02 02:37:15;;;;;;;;;;;;;;;6.46;100.00;97443.19;5029895;28;19967;-58
2023/05/02 02:39:53;;;;;;;;;;;;;;;6.43;100.00;97441.78;5032172;28;19921;-59
2023/05/02 02:42:26;;;;;;;;;;;;;;;6.54;100.00;97450.13;5023234;28;20495;-59
2023/05/02 02:44:55;;;;;;;;;;;;;;;6.67;100.00;97454.56;5014970;28;20312;-58
2023/05/02 02:47:35;;;;;;;;;;;;;;;6.72;100.00;97455.53;5011910;28;20300;-59
2023/05/02 02:50:05;;;;;;;;;;;;;;;6.93;100.00;97463.34;5023219;28;19928;-59
2023/05/02 02:52:50;;;;;;;;;;;;;;;7.08;100.00;97465.66;5016512;28;19921;-59
2023/05/02 02:55:36;;;;;;;;;;;;;;;7.18;100.00;97465.94;5013724;28;19939;-58
2023/05/02 02:58:09;;;;;;;;;;;;;;;7.28;100.00;97462.69;5014221;28;19936;-58
2023/05/02 03:00:35;;;;;;;;;;;;;;;7.46;100.00;97463.69;5023700;28;19927;-58
2023/05/02 03:03:02;;;;;;;;;;;;;;;7.50;100.00;97459.50;5017135;28;20340;-57
2023/05/02 03:05:31;;;;;;;;;;;;;;;7.52;100.00;97463.59;5023365;28;20020;-58
2023/05/02 03:07:58;;;;;;;;;;;;;;;7.53;100.00;97459.84;5018899;28;19987;-59
2023/05/02 03:10:24;;;;;;;;;;;;;;;7.54;100.00;97461.50;5017750;28;19955;-59
2023/05/02 03:12:54;;;;;;;;;;;;;;;7.55;100.00;97462.31;5026988;28;19939;-58
2023/05/02 03:15:40;;;;;;;;;;;;;;;7.54;100.00;97461.50;5021538;28;19979;-59
2023/05/02 03:18:07;;;;;;;;;;;;;;;7.51;100.00;97463.81;5018572;28;19921;-59
2023/05/02 03:20:34;;;;;;;;;;;;;;;7.52;100.00;97470.88;5022031;28;19931;-59
2023/05/02 03:23:01;;;;;;;;;;;;;;;7.51;100.00;97475.44;5018787;28;19925;-59
2023/05/02 03:25:27;;;;;;;;;;;;;;;7.48;100.00;97477.78;5018310;28;19928;-59
2023/05/02 03:27:56;;;;;;;;;;;;;;;7.49;100.00;97471.31;5020010;28;19949;-58
2023/05/02 03:30:22;;;;;;;;;;;;;;;7.51;100.00;97475.44;5044569;28;20372;-59
2023/05/02 03:32:49;;;;;;;;;;;;;;;7.53;100.00;97476.00;5016721;28;19948;-59
2023/05/02 03:35:16;;;;;;;;;;;;;;;7.56;100.00;97480.13;5013874;28;19920;-60
2023/05/02 03:37:44;;;;;;;;;;;;;;;7.60;100.00;97484.03;5013750;28;20419;-59
2023/05/02 03:40:11;;;;;;;;;;;;;;;7.66;100.00;97485.78;5022035;28;19967;-59
2023/05/02 03:42:40;;;;;;;;;;;;;;;7.73;100.00;97493.75;5027580;28;19928;-60
2023/05/02 03:45:18;;;;;;;;;;;;;;;7.80;100.00;97493.66;5021077;28;19925;-59
2023/05/02 03:47:46;;;;;;;;;;;;;;;7.84;100.00;97494.84;5025401;28;19944;-59
2023/05/02 03:50:13;;;;;;;;;;;;;;;7.94;100.00;97499.69;5026658;28;19921;-59
2023/05/02 03:52:40;;;;;;;;;;;;;;;8.02;100.00;97495.81;5023754;28;19931;-59
2023/05/02 03:55:07;;;;;;;;;;;;;;;8.08;100.00;97500.28;5024484;28;20306;-59
2023/05/02 03:57:33;;;;;;;;;;;;;;;8.10;100.00;97498.16;5026777;28;20369;-60
2023/05/02 04:00:00;;;;;;;;;;;;;;;8.10;100.00;97502.75;5035001;28;19948;-60
2023/05/02 04:02:36;;;;;;;;;;;;;;;8.08;100.00;97503.00;5026738;28;20443;-60
2023/05/02 04:05:07;;;;;;;;;;;;;;;8.07;100.00;97499.47;5021136;28;19960;-59
2023/05/02 04:07:35;;;;;;;;;;;;;;;8.10;100.00;97498.16;5027217;28;19928;-60
2023/05/02 04:10:04;;;;;;;;;;;;;;;8.09;100.00;97501.94;5015867;28;19920;-59
2023/05/02 04:12:35;;;;;;;;;;;;;;;8.06;100.00;97503.22;5020965;28;20462;-59
2023/05/02 04:15:02;;;;;;;;;;;;;;;8.06;100.00;97508.59;5019198;28;20059;-59
2023/05/02 04:17:29;;;;;;;;;;;;;;;8.10;100.00;97513.53;5024150;28;20510;-59
2023/05/02 04:19:55;;;;;;;;;;;;;;;8.11;100.00;97509.78;5026958;28;20300;-59
2023/05/02 04:22:25;;;;;;;;;;;;;;;8.11;100.00;97510.59;5047514;28;19921;-59
2023/05/02 04:24:56;;;;;;;;;;;;;;;8.14;100.00;97514.72;5024406;28;20511;-59
2023/05/02 04:27:24;;;;;;;;;;;;;;;8.14;100.00;97510.13;5025636;28;20233;-57
2023/05/02 04:29:52;;;;;;;;;;;;;;;8.15;100.00;97517.16;5027011;28;20007;-60
2023/05/02 04:32:18;;;;;;;;;;;;;;;8.16;100.00;97510.75;5023801;28;19921;-59
2023/05/02 04:34:46;;;;;;;;;;;;;;;8.17;100.00;97515.06;5021454;28;19928;-58
2023/05/02 04:37:13;;;;;;;;;;;;;;;8.19;100.00;97517.53;5021838;28;19925;-58
2023/05/02 04:39:43;;;;;;;;;;;;;;;8.20;100.00;97519.19;5025203;28;19933;-60
2023/05/02 04:42:15;;;;;;;;;;;;;;;8.23;100.00;97525.97;5022913;28;19944;-59
2023/05/02 04:44:51;;;;;;;;;;;;;;;8.26;100.00;97528.22;5021969;28;20597;-59
2023/05/02 04:47:17;;;;;;;;;;;;;;;8.27;100.00;97533.38;5017044;28;21222;-57
2023/05/02 04:49:44;;;;;;;;;;;;;;;8.32;100.00;97535.38;5026128;28;20311;-59
2023/05/02 04:52:10;;;;;;;;;;;;;;;8.36;100.00;97539.25;5016686;28;19929;-59
2023/05/02 04:54:37;;;;;;;;;;;;;;;8.41;100.00;97539.34;5019826;28;19925;-59
2023/05/02 04:57:06;;;;;;;;;;;;;;;8.41;100.00;97542.06;5018824;28;20432;-61
2023/05/02 04:59:36;;;;;;;;;;;;;;;8.39;100.00;97554.13;5040530;28;20685;-57
2023/05/02 05:02:02;;;;;;;;;;;;;;;8.30;100.00;97559.88;5017463;28;20411;-60
2023/05/02 05:04:29;;;;;;;;;;;;;;;8.38;100.00;97568.69;5016071;28;20012;-60
2023/05/02 05:06:56;;;;;;;;;;;;;;;8.36;100.00;97571.63;5022368;28;19932;-60
2023/05/02 05:09:25;;;;;;;;;;;;;;;8.35;100.00;97579.94;5018214;28;19925;-59
2023/05/02 05:11:52;;;;;;;;;;;;;;;8.39;100.00;97581.13;5012021;28;19925;-58
2023/05/02 05:14:19;;;;;;;;;;;;;;;8.53;100.00;97581.75;5026335;28;19928;-59
2023/05/02 05:16:49;;;;;;;;;;;;;;;8.63;100.00;97589.28;5033942;28;19921;-59
2023/05/02 05:19:16;;;;;;;;;;;;;;;8.77;100.00;97587.97;5029235;28;19964;-59
2023/05/02 05:21:42;;;;;;;;;;;;;;;8.80;100.00;97589.38;5022237;28;19956;-60
2023/05/02 05:24:10;;;;;;;;;;;;;;;8.83;100.00;97588.94;5020103;28;19925;-60
2023/05/02 05:26:36;;;;;;;;;;;;;;;8.85;100.00;97594.94;5026922;28;19955;-59
2023/05/02 05:29:03;;;;;;;;;;;;;;;8.87;100.00;97598.19;5024618;28;20446;-59
2023/05/02 05:31:36;;;;;;;;;;;;;;;8.94;100.00;97589.97;5021057;28;19925;-60
2023/05/02 05:34:03;;;;;;;;;;;;;;;8.92;100.00;97601.00;5049079;28;19925;-60
2023/05/02 05:36:31;;;;;;;;;;;;;;;8.98;100.00;97605.50;5031384;28;19927;-60
2023/05/02 05:38:57;;;;;;;;;;;;;;;9.05;100.00;97601.81;5023918;28;19925;-60
2023/05/02 05:41:24;;;;;;;;;;;;;;;9.02;100.00;97602.28;5023473;28;19951;-59
2023/05/02 05:43:57;;;;;;;;;;;;;;;9.06;100.00;97607.00;5013641;28;19925;-58
2023/05/02 05:46:25;;;;;;;;;;;;;;;9.12;100.00;97616.03;5020925;28;20626;-57
2023/05/02 05:48:52;;;;;;;;;;;;;;;9.22;100.00;97618.16;5022904;28;19939;-58
2023/05/02 05:51:19;;;;;;;;;;;;;;;9.30;100.00;97620.50;5019596;28;19929;-59
2023/05/02 05:53:45;;;;;;;;;;;;;;;9.21;100.00;97622.72;5021996;28;20024;-58
2023/05/02 05:56:12;;;;;;;;;;;;;;;9.25;100.00;97625.75;5016899;28;20008;-57
2023/05/02 05:58:44;;;;;;;;;;;;;;;9.32;100.00;97628.38;5021247;28;20419;-59
2023/05/02 06:01:12;;;;;;;;;;;;;;;9.36;100.00;97633.03;5017134;28;19921;-58
2023/05/02 06:03:39;;;;;;;;;;;;;;;9.35;100.00;97634.09;5019186;28;19921;-57
2023/05/02 06:06:06;;;;;;;;;;;;;;;9.35;100.00;97638.69;5020460;28;19924;-58
2023/05/02 06:08:32;;;;;;;;;;;;;;;9.32;100.00;97636.47;5023588;28;19924;-58
2023/05/02 06:10:59;;;;;;;;;;;;;;;9.42;100.00;97643.94;5025802;28;19925;-58
2023/05/02 06:13:25;;;;;;;;;;;;;;;9.43;100.00;97643.72;5016286;28;19929;-58
2023/05/02 06:15:52;;;;;;;;;;;;;;;9.40;100.00;97652.28;5029296;28;20697;-59
2023/05/02 06:18:18;;;;;;;;;;;;;;;9.48;100.00;97641.13;5022940;28;19956;-58
2023/05/02 06:20:45;;;;;;;;;;;;;;;9.58;100.00;97651.31;5026015;28;20711;-59
2023/05/02 06:23:11;;;;;;;;;;;;;;;9.63;100.00;97661.44;5017111;28;19925;-59
2023/05/02 06:25:38;;;;;;;;;;;;;;;9.60;100.00;97664.63;5016337;28;20304;-58
2023/05/02 06:28:05;;;;;;;;;;;;;;;9.78;100.00;97665.50;5013393;28;19925;-59
2023/05/02 06:30:31;;;;;;;;;;;;;;;9.70;100.00;97664.81;5022247;28;20040;-59
2023/05/02 06:32:57;;;;;;;;;;;;;;;9.67;100.00;97667.19;5020788;28;19929;-59
2023/05/02 06:35:24;;;;;;;;;;;;;;;9.74;100.00;97665.97;5011996;28;19995;-59
2023/05/02 06:37:50;;;;;;;;;;;;;;;9.78;100.00;97663.63;5013591;28;20127;-58
2023/05/02 06:40:17;;;;;;;;;;;;;;;9.81;100.00;97670.44;5011473;28;20019;-59
2023/05/02 06:42:43;;;;;;;;;;;;;;;9.69;100.00;97671.28;5022475;28;19971;-59
2023/05/02 06:45:09;;;;;;;;;;;;;;;9.71;100.00;97671.88;5021886;28;20112;-59
2023/05/02 06:47:36;;;;;;;;;;;;;;;9.84;100.00;97680.78;5021018;28;19929;-58
2023/05/02 06:50:03;;;;;;;;;;;;;;;10.09;100.00;97691.28;5020324;28;19925;-58
2023/05/02 06:52:29;;;;;;;;;;;;;;;10.29;100.00;97684.63;5019060;28;20028;-58
2023/05/02 06:54:56;;;;;;;;;;;;;;;10.34;100.00;97697.41;5021912;28;19937;-58
2023/05/02 06:57:23;;;;;;;;;;;;;;;10.24;100.00;97689.91;5019400;28;20582;-59
2023/05/02 06:59:50;;;;;;;;;;;;;;;10.08;100.00;97691.53;5018345;28;19925;-58
2023/05/02 07:02:16;;;;;;;;;;;;;;;10.13;100.00;97702.44;5021130;28;20544;-58
2023/05/02 07:04:42;;;;;;;;;;;;;;;10.23;100.00;97708.06;5020505;28;19924;-57
2023/05/02 07:07:09;;;;;;;;;;;;;;;10.12;100.00;97709.75;5017223;28;19920;-56
2023/05/02 07:09:35;;;;;;;;;;;;;;;10.19;100.00;97708.78;5011514;28;19967;-56
2023/05/02 07:12:02;;;;;;;;;;;;;;;10.42;100.00;97713.25;5020900;28;19925;-58
2023/05/02 07:14:32;;;;;;;;;;;;;;;10.52;100.00;97716.22;5022863;28;19931;-59
2023/05/02 07:16:58;;;;;;;;;;;;;;;10.56;100.00;97721.13;5028459;28;19944;-58
2023/05/02 07:19:25;;;;;;;;;;;;;;;10.60;100.00;97722.28;5015292;28;20464;-58
2023/05/02 07:21:51;;;;;;;;;;;;;;;10.43;100.00;97727.63;5020679;28;19929;-57
2023/05/02 07:24:17;;;;;;;;;;;;;;;10.23;100.00;97737.00;5023587;28;19954;-57
2023/05/02 07:26:44;;;;;;;;;;;;;;;10.49;100.00;97732.09;5020034;28;20655;-58
2023/05/02 07:29:11;;;;;;;;;;;;;;;10.48;100.00;97731.28;5019673;28;19960;-57
2023/05/02 07:31:38;;;;;;;;;;;;;;;10.48;100.00;97736.72;5023480;28;19948;-58
2023/05/02 07:34:04;;;;;;;;;;;;;;;10.70;100.00;97725.19;5023865;28;19920;-58
2023/05/02 07:36:31;;;;;;;;;;;;;;;10.40;100.00;97740.56;5019457;28;20019;-58
2023/05/02 07:38:58;;;;;;;;;;;;;;;10.63;100.00;97738.88;5015668;28;20007;-58
2023/05/02 07:41:24;;;;;;;;;;;;;;;10.60;100.00;97738.53;5014861;28;19921;-59
2023/05/02 07:43:51;;;;;;;;;;;;;;;10.68;100.00;97735.41;5015346;28;20288;-59
2023/05/02 07:46:17;;;;;;;;;;;;;;;10.88;100.00;97740.38;5013661;28;19921;-59
2023/05/02 07:48:44;;;;;;;;;;;;;;;11.12;100.00;97734.81;5025484;28;19978;-58
2023/05/02 07:51:11;;;;;;;;;;;;;;;11.34;98.77;97741.34;5024796;28;20419;-58
2023/05/02 07:53:37;;;;;;;;;;;;;;;11.06;100.00;97735.81;5013036;28;19928;-59
2023/05/02 07:56:07;;;;;;;;;;;;;;;11.41;99.93;97748.28;5015459;28;19939;-58
2023/05/02 07:58:34;;;;;;;;;;;;;;;11.60;96.57;97744.47;5016216;28;19921;-59
2023/05/02 08:01:01;;;;;;;;;;;;;;;11.34;98.38;97744.06;5020990;28;20484;-59
2023/05/02 08:03:28;;;;;;;;;;;;;;;11.39;97.48;97747.69;5016113;28;20554;-58
2023/05/02 08:05:55;;;;;;;;;;;;;;;11.20;100.00;97757.97;5016351;28;20416;-58
2023/05/02 08:08:22;;;;;;;;;;;;;;;11.30;99.34;97757.31;5015770;28;20270;-59
2023/05/02 08:10:50;;;;;;;;;;;;;;;11.19;99.52;97759.03;5016243;28;19921;-58
2023/05/02 08:13:16;;;;;;;;;;;;;;;11.23;98.85;97762.06;5017200;28;19968;-57
2023/05/02 08:15:43;;;;;;;;;;;;;;;11.27;100.00;97757.78;5019125;28;19924;-58
2023/05/02 08:18:09;;;;;;;;;;;;;;;11.32;99.92;97764.13;5016393;28;19922;-59
2023/05/02 08:20:36;;;;;;;;;;;;;;;11.51;96.77;97763.03;5027039;28;19921;-59
2023/05/02 08:23:02;;;;;;;;;;;;;;;11.47;97.80;97767.31;5025270;28;19933;-58
2023/05/02 08:25:29;;;;;;;;;;;;;;;11.94;97.64;97771.53;5022213;28;19925;-57
2023/05/02 08:27:55;;;;;;;;;;;;;;;11.43;97.88;97767.00;5014295;28;19921;-57
2023/05/02 08:30:22;;;;;;;;;;;;;;;11.28;100.00;97760.25;5023692;28;20484;-57
2023/05/02 08:32:48;;;;;;;;;;;;;;;11.35;98.83;97772.84;5021435;28;19961;-58
2023/05/02 08:35:15;;;;;;;;;;;;;;;11.31;100.00;97769.78;5024081;28;19925;-58
2023/05/02 08:37:41;;;;;;;;;;;;;;;11.15;99.85;97771.44;5014574;28;19994;-58
2023/05/02 08:40:10;;;;;;;;;;;;;;;11.03;100.00;97774.22;5022553;28;19964;-59
2023/05/02 08:42:40;;;;;;;;;;;;;;;11.03;100.00;97776.94;5021049;28;19924;-58
2023/05/02 08:45:07;;;;;;;;;;;;;;;11.06;100.00;97776.44;5023105;28;19929;-57
2023/05/02 08:47:35;;;;;;;;;;;;;;;10.99;100.00;97773.88;5020831;28;20360;-58
2023/05/02 08:50:02;;;;;;;;;;;;;;;11.14;100.00;97776.03;5022886;28;19925;-58
2023/05/02 08:52:29;;;;;;;;;;;;;;;11.12;100.00;97777.34;5009996;28;20020;-57
2023/05/02 08:54:56;;;;;;;;;;;;;;;11.49;100.00;97779.56;5025017;28;20299;-57
2023/05/02 08:57:23;;;;;;;;;;;;;;;11.76;99.37;97781.56;5031949;28;19983;-57
2023/05/02 08:59:49;;;;;;;;;;;;;;;12.08;98.03;97786.38;5029321;28;19927;-58
2023/05/02 09:02:27;;;;;;;;;;;;;;;12.69;96.99;97784.66;5019775;28;19925;-58
2023/05/02 09:04:58;;;;;;;;;;;;;;;13.02;92.04;97784.69;5019326;28;19971;-56
2023/05/02 09:07:25;;;;;;;;;;;;;;;13.23;87.81;97790.31;5020515;28;19955;-58
2023/05/02 09:09:52;;;;;;;;;;;;;;;13.38;88.93;97795.88;5022119;28;20012;-56
2023/05/02 09:12:24;;;;;;;;;;;;;;;13.48;86.43;97799.78;5020311;28;19924;-59
2023/05/02 09:15:08;;;;;;;;;;;;;;;13.04;89.16;97804.28;5026775;28;19955;-58
2023/05/02 09:17:41;;;;;;;;;;;;;;;12.70;91.01;97796.31;5010177;28;20023;-56
2023/05/02 09:20:09;;;;;;;;;;;;;;;12.97;92.10;97792.81;5020717;28;20522;-57
2023/05/02 09:22:35;;;;;;;;;;;;;;;12.79;89.05;97797.50;5025613;28;19972;-56
2023/05/02 09:25:03;;;;;;;;;;;;;;;13.24;87.17;97794.66;5029755;28;19921;-57
2023/05/02 09:27:47;;;;;;;;;;;;;;;13.42;83.03;97795.34;5023673;28;19931;-57
2023/05/02 09:30:20;;;;;;;;;;;;;;;13.53;81.60;97797.09;5017430;28;19952;-57
2023/05/02 09:32:49;;;;;;;;;;;;;;;13.32;80.83;97802.34;5031295;28;19947;-58
2023/05/02 09:35:22;;;;;;;;;;;;;;;13.10;78.83;97797.81;5025386;28;19927;-58
2023/05/02 09:37:58;;;;;;;;;;;;;;;13.31;80.83;97795.28;5030609;28;19921;-56
2023/05/02 09:40:26;;;;;;;;;;;;;;;13.58;76.35;97783.53;5017197;28;19935;-58
2023/05/02 09:42:52;;;;;;;;;;;;;;;13.57;76.68;97797.41;5021245;28;19921;-57
2023/05/02 09:45:20;;;;;;;;;;;;;;;13.60;76.74;97791.44;5017793;28;19928;-58
2023/05/02 09:47:47;;;;;;;;;;;;;;;13.34;77.12;97789.31;5016772;28;19929;-58
2023/05/02 09:50:33;;;;;;;;;;;;;;;13.61;78.77;97787.63;5019213;28;19921;-57
2023/05/02 09:53:01;;;;;;;;;;;;;;;13.59;80.07;97792.50;5027074;28;19925;-56
2023/05/02 09:55:28;;;;;;;;;;;;;;;13.23;82.73;97788.41;5024080;28;19937;-57
2023/05/02 09:57:54;;;;;;;;;;;;;;;13.40;84.38;97788.28;5021706;28;19975;-58
2023/05/02 10:00:21;;;;;;;;;;;;;;;13.35;81.50;97795.56;5014616;28;20542;-57
2023/05/02 10:02:50;;;;;;;;;;;;;;;13.34;81.51;97789.31;5018572;28;19933;-58
2023/05/02 10:05:17;;;;;;;;;;;;;;;13.39;79.79;97789.34;5015448;28;20340;-57
2023/05/02 10:07:44;;;;;;;;;;;;;;;13.86;73.74;97794.31;5019878;28;20028;-58
2023/05/02 10:10:13;;;;;;;;;;;;;;;14.24;72.58;97796.97;5022685;28;19924;-55
2023/05/02 10:12:40;;;;;;;;;;;;;;;14.13;77.46;97796.09;5030682;28;20299;-58
2023/05/02 10:15:08;;;;;;;;;;;;;;;14.29;75.55;97789.63;5014983;28;19921;-57
2023/05/02 10:17:40;;;;;;;;;;;;;;;14.34;73.65;97799.72;5025649;28;19925;-57
2023/05/02 10:20:09;;;;;;;;;;;;;;;14.37;72.82;97806.56;5022274;28;19929;-56
2023/05/02 10:22:36;;;;;;;;;;;;;;;14.41;71.86;97800.31;5033971;28;19925;-59
2023/05/02 10:25:03;;;;;;;;;;;;;;;14.66;69.14;97798.75;5027648;28;19931;-57
2023/05/02 10:27:30;;;;;;;;;;;;;;;14.82;67.75;97796.09;5020853;28;19925;-58
2023/05/02 10:29:58;;;;;;;;;;;;;;;14.51;67.35;97801.41;5014376;28;20385;-58
2023/05/02 10:32:27;;;;;;;;;;;;;;;14.17;71.01;97802.66;5024645;28;19933;-59
2023/05/02 10:34:55;;;;;;;;;;;;;;;13.92;73.97;97801.44;5021307;28;20403;-58
2023/05/02 10:37:24;;;;;;;;;;;;;;;13.91;76.61;97810.69;5016954;28;20048;-58
2023/05/02 10:39:50;;;;;;;;;;;;;;;13.87;75.42;97806.84;5016622;28;19932;-58
2023/05/02 10:42:18;;;;;;;;;;;;;;;13.82;76.51;97798.66;5021569;28;19925;-57
2023/05/02 10:44:45;;;;;;;;;;;;;;;13.61;77.48;97806.69;5020347;28;19925;-58
2023/05/02 10:47:18;;;;;;;;;;;;;;;13.99;77.74;97807.47;5019769;28;19925;-58
2023/05/02 10:49:56;;;;;;;;;;;;;;;14.15;79.03;97802.91;5026629;28;19925;-58
2023/05/02 10:52:29;;;;;;;;;;;;;;;14.22;75.94;97799.94;5019723;28;20036;-59
2023/05/02 10:55:14;;;;;;;;;;;;;;;14.28;78.18;97801.63;5023096;28;20513;-56
2023/05/02 10:57:56;;;;;;;;;;;;;;;14.91;75.19;97791.75;5018186;28;20233;-58
2023/05/02 11:00:24;;;;;;;;;;;;;;;15.32;72.87;97793.69;5025995;28;19929;-57
2023/05/02 11:02:50;;;;;;;;;;;;;;;15.41;69.65;97785.78;5028294;28;20011;-58
2023/05/02 11:05:17;;;;;;;;;;;;;;;14.76;71.02;97787.09;5019058;28;19978;-58
2023/05/02 11:07:44;;;;;;;;;;;;;;;14.64;70.75;97783.75;5011653;28;19933;-57
2023/05/02 11:10:16;;;;;;;;;;;;;;;14.67;72.46;97786.75;5019457;28;20016;-58
2023/05/02 11:12:47;;;;;;;;;;;;;;;14.44;73.78;97793.50;5019104;28;19929;-59
2023/05/02 11:15:14;;;;;;;;;;;;;;;14.16;77.26;97790.94;5017535;28;19932;-57
2023/05/02 11:18:00;;;;;;;;;;;;;;;14.43;76.29;97792.69;5017538;28;20368;-58
2023/05/02 11:20:27;;;;;;;;;;;;;;;14.59;76.06;97790.00;5019772;28;19925;-58
2023/05/02 11:22:54;;;;;;;;;;;;;;;14.66;75.11;97795.19;5025645;28;19927;-56
2023/05/02 11:25:31;;;;;;;;;;;;;;;14.77;74.35;97791.44;5023715;28;19921;-56
2023/05/02 11:27:57;;;;;;;;;;;;;;;14.48;71.56;97786.44;5018926;28;19921;-57
2023/05/02 11:30:37;;;;;;;;;;;;;;;14.68;73.74;97788.38;5027908;28;20096;-57
2023/05/02 11:33:03;;;;;;;;;;;;;;;15.17;73.95;97791.78;5019058;28;19921;-57
2023/05/02 11:35:30;;;;;;;;;;;;;;;15.67;72.30;97788.47;5023751;28;19921;-57
2023/05/02 11:38:03;;;;;;;;;;;;;;;15.53;72.71;97784.69;5022903;28;20028;-55
2023/05/02 11:40:30;;;;;;;;;;;;;;;15.64;72.95;97788.22;5027962;28;19968;-58
2023/05/02 11:42:57;;;;;;;;;;;;;;;15.80;70.34;97783.53;5017062;28;20342;-57
2023/05/02 11:45:37;;;;;;;;;;;;;;;15.58;67.46;97798.31;5017361;28;19939;-58
2023/05/02 11:48:05;;;;;;;;;;;;;;;14.90;71.58;97778.41;5010374;28;19991;-58
2023/05/02 11:50:32;;;;;;;;;;;;;;;15.01;69.54;97790.13;5022210;28;19925;-58
2023/05/02 11:52:59;;;;;;;;;;;;;;;15.25;68.03;97789.63;5019262;28;19975;-58
2023/05/02 11:55:26;;;;;;;;;;;;;;;15.70;67.37;97784.41;5008922;28;19963;-57
2023/05/02 11:57:52;;;;;;;;;;;;;;;15.79;68.94;97788.22;5011635;28;19925;-57
2023/05/02 12:00:25;;;;;;;;;;;;;;;15.26;66.29;97789.31;5017293;28;19925;-56
2023/05/02 12:02:52;;;;;;;;;;;;;;;15.52;66.46;97781.13;5021395;28;19947;-55
2023/05/02 12:05:27;;;;;;;;;;;;;;;15.90;67.11;97796.38;5022914;28;19990;-57
2023/05/02 12:07:53;;;;;;;;;;;;;;;15.32;67.58;97787.41;5016369;28;19926;-57
2023/05/02 12:10:19;;;;;;;;;;;;;;;15.38;68.97;97797.25;5022356;28;20578;-58
2023/05/02 12:12:46;;;;;;;;;;;;;;;15.62;68.48;97799.41;5029041;28;20008;-57
2023/05/02 12:15:13;;;;;;;;;;;;;;;15.44;66.29;97790.69;5024472;28;20507;-57
2023/05/02 12:17:39;;;;;;;;;;;;;;;15.15;67.18;97799.41;5026052;28;19931;-59
2023/05/02 12:20:07;;;;;;;;;;;;;;;15.00;66.94;97802.13;5028932;28;19925;-57
2023/05/02 12:22:34;;;;;;;;;;;;;;;15.81;66.00;97802.38;5021454;28;19925;-57
2023/05/02 12:25:02;;;;;;;;;;;;;;;16.01;65.68;97799.91;5018969;28;19932;-56
2023/05/02 12:27:32;;;;;;;;;;;;;;;16.16;64.00;97808.06;5024764;28;19928;-58
2023/05/02 12:29:58;;;;;;;;;;;;;;;15.96;61.51;97793.38;5025362;28;20376;-56
2023/05/02 12:32:26;;;;;;;;;;;;;;;16.16;60.55;97799.88;5023393;28;20304;-58
2023/05/02 12:34:53;;;;;;;;;;;;;;;16.42;61.40;97794.31;5014606;28;20039;-56
2023/05/02 12:37:23;;;;;;;;;;;;;;;16.44;61.60;97799.50;5021774;28;19929;-58
2023/05/02 12:39:50;;;;;;;;;;;;;;;16.09;61.32;97794.72;5025077;28;20004;-57
2023/05/02 12:42:17;;;;;;;;;;;;;;;16.31;59.30;97799.00;5022940;28;19921;-56
2023/05/02 12:44:45;;;;;;;;;;;;;;;16.52;61.17;97794.25;5022538;28;19991;-56
2023/05/02 12:47:13;;;;;;;;;;;;;;;16.54;61.34;97793.97;5028348;28;19931;-56
2023/05/02 12:49:56;;;;;;;;;;;;;;;16.29;59.23;97803.13;5031066;28;19929;-58
2023/05/02 12:52:41;;;;;;;;;;;;;;;16.21;62.33;97797.13;5030105;28;19925;-58